createdAt,value
2023-03-12T00:00:06.093Z,-0.9
2023-03-12T00:01:06.539Z,-0.9
2023-03-12T00:02:06.582Z,-0.9
2023-03-12T00:03:06.715Z,-0.9
2023-03-12T00:04:06.159Z,-1
2023-03-12T00:05:06.210Z,-1
2023-03-12T00:06:14.473Z,-1
2023-03-12T00:07:06.426Z,-2
2023-03-12T00:08:06.762Z,-1
2023-03-12T00:09:05.821Z,-1
2023-03-12T00:10:06.359Z,-1.1
2023-03-12T00:11:06.356Z,-1.1
2023-03-12T00:12:06.721Z,-1.1
2023-03-12T00:13:06.547Z,-1.1
2023-03-12T00:14:06.633Z,-1.1
2023-03-12T00:15:05.969Z,-2
2023-03-12T00:16:06.273Z,-1.2
2023-03-12T00:17:06.288Z,-1.2
2023-03-12T00:18:06.725Z,-1.2
2023-03-12T00:19:05.821Z,-1.2
2023-03-12T00:20:06.273Z,-1.2
2023-03-12T00:21:06.946Z,-2
2023-03-12T00:22:06.206Z,-2
2023-03-12T00:23:06.610Z,-1.2
2023-03-12T00:24:06.110Z,-1.2
2023-03-12T00:25:06.206Z,-1.2
2023-03-12T00:26:06.121Z,-1.2
2023-03-12T00:27:06.454Z,-1.2
2023-03-12T00:28:05.979Z,-3
2023-03-12T00:29:06.604Z,-3
2023-03-12T00:30:06.757Z,-1.3
2023-03-12T00:31:06.088Z,-1.3
2023-03-12T00:32:05.852Z,-1.4
2023-03-12T00:33:06.326Z,-1.4
2023-03-12T00:34:06.705Z,-1.4
2023-03-12T00:35:05.914Z,-1.4
2023-03-12T00:36:06.415Z,-1.4
2023-03-12T00:37:06.131Z,-1.4
2023-03-12T00:38:06.528Z,-1.4
2023-03-12T00:39:05.923Z,-1.5
2023-03-12T00:40:06.161Z,-1.5
2023-03-12T00:41:06.050Z,-1.5
2023-03-12T00:42:06.232Z,-1.5
2023-03-12T00:43:06.559Z,-1.5
2023-03-12T00:44:05.878Z,-1.6
2023-03-12T00:45:06.293Z,-1.6
2023-03-12T00:46:06.328Z,-1.6
2023-03-12T00:47:05.986Z,-1.6
2023-03-12T00:48:06.333Z,-1.6
2023-03-12T00:49:05.995Z,-1.6
2023-03-12T00:50:06.388Z,-3
2023-03-12T00:51:06.617Z,-1.7
2023-03-12T00:52:06.318Z,-1.8
2023-03-12T00:53:05.959Z,-1.8
2023-03-12T00:54:06.862Z,-1.8
2023-03-12T00:55:06.261Z,-1.8
2023-03-12T00:56:05.807Z,-1.9
2023-03-12T00:57:05.921Z,-1.9
2023-03-12T00:58:06.242Z,-1.9
2023-03-12T00:59:06.662Z,-1.9
2023-03-12T01:00:06.645Z,-1.9
2023-03-12T01:01:06.653Z,-3
2023-03-12T01:02:06.792Z,-2
2023-03-12T01:03:06.185Z,-2
2023-03-12T01:04:06.556Z,-2
2023-03-12T01:05:06.544Z,-2
2023-03-12T01:06:06.635Z,-2
2023-03-12T01:07:06.093Z,-2.1
2023-03-12T01:08:06.219Z,-2.1
2023-03-12T01:09:06.096Z,-2.1
2023-03-12T01:10:06.461Z,-2.1
2023-03-12T01:11:06.668Z,-2.1
2023-03-12T01:12:06.699Z,-2.1
2023-03-12T01:13:05.903Z,-2.1
2023-03-12T01:14:06.042Z,-2.1
2023-03-12T01:15:06.582Z,-2.1
2023-03-12T01:16:06.318Z,-2.1
2023-03-12T01:17:06.823Z,-2.2
2023-03-12T01:18:06.179Z,-2.2
2023-03-12T01:19:06.404Z,-2.2
2023-03-12T01:20:06.663Z,-2.2
2023-03-12T01:21:06.710Z,-2.2
2023-03-12T01:22:05.839Z,-2.2
2023-03-12T01:23:06.147Z,-2.2
2023-03-12T01:24:06.292Z,-2.2
2023-03-12T01:25:05.985Z,-2.2
2023-03-12T01:26:06.351Z,-3
2023-03-12T01:27:06.548Z,-2.2
2023-03-12T01:28:06.051Z,-2.2
2023-03-12T01:29:06.504Z,-2.2
2023-03-12T01:30:06.036Z,-2.2
2023-03-12T01:31:05.931Z,-2.2
2023-03-12T01:32:06.246Z,-2.2
2023-03-12T01:33:06.605Z,-2.2
2023-03-12T01:34:05.909Z,-2.2
2023-03-12T01:35:06.722Z,-2.2
2023-03-12T01:36:06.656Z,-2.2
2023-03-12T01:37:06.683Z,-2.2
2023-03-12T01:38:06.061Z,-2.2
2023-03-12T01:39:06.557Z,-2.2
2023-03-12T01:40:05.904Z,-3
2023-03-12T01:41:06.051Z,-2.3
2023-03-12T01:42:05.881Z,-2.3
2023-03-12T01:43:05.808Z,-2.4
2023-03-12T01:44:06.145Z,-2.3
2023-03-12T01:45:06.566Z,-2.4
2023-03-12T01:46:06.169Z,-2.4
2023-03-12T01:47:06.131Z,-2.4
2023-03-12T01:48:06.678Z,-2.4
2023-03-12T01:49:06.068Z,-2.4
2023-03-12T01:50:06.894Z,-2.4
2023-03-12T01:51:06.049Z,-2.4
2023-03-12T01:52:06.259Z,-2.4
2023-03-12T01:53:06.596Z,-2.4
2023-03-12T01:54:05.159Z,-2.5
2023-03-12T01:55:06.520Z,-3
2023-03-12T01:56:06.701Z,-2.5
2023-03-12T01:57:05.834Z,-2.5
2023-03-12T01:58:06.610Z,-2.5
2023-03-12T01:59:06.001Z,-2.6
2023-03-12T02:00:05.870Z,-2.6
2023-03-12T02:01:06.417Z,-2.7
2023-03-12T02:02:06.598Z,-2.6
2023-03-12T02:03:05.895Z,-2.7
2023-03-12T02:04:06.730Z,-2.7
2023-03-12T02:05:05.865Z,-2.7
2023-03-12T02:07:06.062Z,-2.7
2023-03-12T02:08:06.390Z,-2.7
2023-03-12T02:09:06.664Z,-2.7
2023-03-12T02:10:05.866Z,-2.7
2023-03-12T02:11:06.013Z,-2.8
2023-03-12T02:12:06.072Z,-2.8
2023-03-12T02:13:06.518Z,-2.7
2023-03-12T02:14:06.655Z,-2.7
2023-03-12T02:15:05.981Z,-2.8
2023-03-12T02:16:06.009Z,-2.8
2023-03-12T02:17:06.485Z,-2.8
2023-03-12T02:18:06.780Z,-2.8
2023-03-12T02:19:05.959Z,-2.8
2023-03-12T02:20:06.541Z,-2.8
2023-03-12T02:21:06.034Z,-2.8
2023-03-12T02:22:06.368Z,-2.8
2023-03-12T02:23:06.552Z,-2.8
2023-03-12T02:24:05.806Z,-2.8
2023-03-12T02:25:06.251Z,-3
2023-03-12T02:26:06.469Z,-2.8
2023-03-12T02:27:05.742Z,-3
2023-03-12T02:28:06.070Z,-2.8
2023-03-12T02:29:06.787Z,-4
2023-03-12T02:30:05.848Z,-2.8
2023-03-12T02:31:06.264Z,-2.8
2023-03-12T02:32:07.047Z,-2.8
2023-03-12T02:33:06.710Z,-2.8
2023-03-12T02:34:05.872Z,-2.8
2023-03-12T02:35:05.906Z,-2.8
2023-03-12T02:36:06.903Z,-2.9
2023-03-12T02:37:05.963Z,-4
2023-03-12T02:38:06.124Z,-2.9
2023-03-12T02:39:06.084Z,-2.9
2023-03-12T02:40:06.166Z,-3
2023-03-12T02:41:06.461Z,-3
2023-03-12T02:42:06.369Z,-3
2023-03-12T02:43:06.571Z,-3
2023-03-12T02:44:05.917Z,-3
2023-03-12T02:45:06.124Z,-3
2023-03-12T02:46:06.308Z,-3
2023-03-12T02:47:06.147Z,-3
2023-03-12T02:48:05.837Z,-3
2023-03-12T02:49:06.529Z,-4
2023-03-12T02:50:05.937Z,-3
2023-03-12T02:51:06.145Z,-3
2023-03-12T02:52:06.334Z,-3
2023-03-12T02:53:06.578Z,-3
2023-03-12T02:54:05.765Z,-4
2023-03-12T02:55:06.152Z,-3
2023-03-12T02:56:06.309Z,-3.1
2023-03-12T02:57:06.045Z,-3
2023-03-12T02:58:06.404Z,-3
2023-03-12T02:59:08.629Z,-3
2023-03-12T03:00:06.806Z,-3
2023-03-12T03:01:06.772Z,-3.1
2023-03-12T03:02:05.875Z,-3.1
2023-03-12T03:03:06.298Z,-3.1
2023-03-12T03:04:06.540Z,-3.1
2023-03-12T03:05:05.811Z,-3.1
2023-03-12T03:06:06.836Z,-3.1
2023-03-12T03:07:06.760Z,-3.2
2023-03-12T03:08:05.887Z,-3.1
2023-03-12T03:09:06.735Z,-3.2
2023-03-12T03:10:06.141Z,-3.2
2023-03-12T03:11:06.158Z,-3.2
2023-03-12T03:12:06.225Z,-3.2
2023-03-12T03:13:05.700Z,-3.2
2023-03-12T03:14:06.232Z,-3.2
2023-03-12T03:15:06.758Z,-3.2
2023-03-12T03:16:06.461Z,-3.2
2023-03-12T03:17:06.449Z,-3.2
2023-03-12T03:18:06.223Z,-3.2
2023-03-12T03:19:06.231Z,-3.3
2023-03-12T03:20:06.541Z,-3.2
2023-03-12T03:21:06.304Z,-3.3
2023-03-12T03:22:06.183Z,-3.3
2023-03-12T03:23:06.295Z,-3.3
2023-03-12T03:24:06.802Z,-3.3
2023-03-12T03:25:06.169Z,-3.3
2023-03-12T03:26:06.578Z,-3.4
2023-03-12T03:27:06.639Z,-3.4
2023-03-12T03:28:06.122Z,-3.4
2023-03-12T03:29:06.493Z,-3.4
2023-03-12T03:30:06.290Z,-3.4
2023-03-12T03:31:06.487Z,-3.4
2023-03-12T03:32:06.268Z,-3.4
2023-03-12T03:33:06.745Z,-3.4
2023-03-12T03:34:05.868Z,-3.4
2023-03-12T03:35:06.542Z,-3.4
2023-03-12T03:36:06.924Z,-3.4
2023-03-12T03:37:05.942Z,-3.4
2023-03-12T03:38:06.770Z,-3.4
2023-03-12T03:39:05.852Z,-3.4
2023-03-12T03:40:05.824Z,-3.4
2023-03-12T03:41:06.837Z,-3.4
2023-03-12T03:42:06.434Z,-3.4
2023-03-12T03:43:06.566Z,-3.4
2023-03-12T03:44:05.952Z,-3.4
2023-03-12T03:45:06.826Z,-3.4
2023-03-12T03:46:06.188Z,-3.4
2023-03-12T03:47:06.166Z,-3.4
2023-03-12T03:48:06.130Z,-3.4
2023-03-12T03:49:06.129Z,-3.4
2023-03-12T03:50:06.776Z,-3.4
2023-03-12T03:51:06.251Z,-3.4
2023-03-12T03:52:06.317Z,-3.4
2023-03-12T03:53:05.699Z,-3.4
2023-03-12T03:54:05.905Z,-3.4
2023-03-12T03:55:06.351Z,-3.3
2023-03-12T03:56:06.737Z,-3.3
2023-03-12T03:57:05.847Z,-3.3
2023-03-12T03:58:06.879Z,-4
2023-03-12T03:59:06.050Z,-3.2
2023-03-12T04:00:08.051Z,-3.3
2023-03-12T04:01:06.186Z,-3.3
2023-03-12T04:02:06.216Z,-3.2
2023-03-12T04:03:06.344Z,-3.2
2023-03-12T04:04:06.194Z,-3.2
2023-03-12T04:05:06.638Z,-3.2
2023-03-12T04:06:05.958Z,-3.2
2023-03-12T04:07:06.098Z,-3.2
2023-03-12T04:08:06.172Z,-3.1
2023-03-12T04:09:05.942Z,-3.1
2023-03-12T04:10:06.154Z,-3
2023-03-12T04:11:06.431Z,-3.1
2023-03-12T04:12:06.378Z,-3
2023-03-12T04:13:06.125Z,-3
2023-03-12T04:14:06.430Z,-3
2023-03-12T04:15:05.999Z,-2.9
2023-03-12T04:16:06.437Z,-2.9
2023-03-12T04:17:06.418Z,-2.9
2023-03-12T04:18:07.097Z,-2.9
2023-03-12T04:19:06.053Z,-2.8
2023-03-12T04:20:06.212Z,-2.8
2023-03-12T04:21:05.924Z,-2.8
2023-03-12T04:22:06.208Z,-2.8
2023-03-12T04:23:06.364Z,-2.8
2023-03-12T04:24:06.547Z,-2.8
2023-03-12T04:25:05.892Z,-2.8
2023-03-12T04:26:06.393Z,-3
2023-03-12T04:27:06.609Z,-2.7
2023-03-12T04:28:05.919Z,-2.8
2023-03-12T04:29:06.213Z,-2.7
2023-03-12T04:30:06.704Z,-3
2023-03-12T04:31:06.046Z,-2.7
2023-03-12T04:32:06.058Z,-2.7
2023-03-12T04:33:06.341Z,-2.6
2023-03-12T04:34:05.842Z,-2.6
2023-03-12T04:35:06.168Z,-2.6
2023-03-12T04:36:06.495Z,-2.6
2023-03-12T04:37:05.783Z,-2.6
2023-03-12T04:38:06.206Z,-2.6
2023-03-12T04:39:05.919Z,-2.6
2023-03-12T04:40:06.232Z,-2.6
2023-03-12T04:41:06.247Z,-2.6
2023-03-12T04:42:06.396Z,-2.5
2023-03-12T04:43:06.336Z,-2.5
2023-03-12T04:44:06.441Z,-2.5
2023-03-12T04:45:06.854Z,-2.5
2023-03-12T04:46:06.742Z,-2.5
2023-03-12T04:47:06.085Z,-2.5
2023-03-12T04:48:05.976Z,-2.5
2023-03-12T04:49:06.198Z,-2.5
2023-03-12T04:50:06.308Z,-2.5
2023-03-12T04:51:06.456Z,-3
2023-03-12T04:52:06.715Z,-2.5
2023-03-12T04:53:06.116Z,-2.5
2023-03-12T04:54:05.966Z,-2.5
2023-03-12T04:55:06.128Z,-2.5
2023-03-12T04:56:06.701Z,-2.5
2023-03-12T04:57:06.141Z,-2.6
2023-03-12T04:58:06.348Z,-2.5
2023-03-12T04:59:06.726Z,-2.5
2023-03-12T05:00:06.770Z,-2.6
2023-03-12T05:01:06.915Z,-2.5
2023-03-12T05:02:05.901Z,-2.6
2023-03-12T05:03:06.506Z,-2.6
2023-03-12T05:04:06.910Z,-2.6
2023-03-12T05:05:06.744Z,-2.6
2023-03-12T05:06:06.058Z,-2.5
2023-03-12T05:07:06.275Z,-2.6
2023-03-12T05:08:06.392Z,-2.6
2023-03-12T05:09:06.432Z,-3
2023-03-12T05:10:06.125Z,-2.6
2023-03-12T05:11:06.060Z,-2.6
2023-03-12T05:12:06.419Z,-2.6
2023-03-12T05:13:06.568Z,-4
2023-03-12T05:14:06.935Z,-2.5
2023-03-12T05:15:06.711Z,-2.6
2023-03-12T05:16:06.271Z,-2.6
2023-03-12T05:17:06.310Z,-2.6
2023-03-12T05:18:06.590Z,-2.6
2023-03-12T05:19:06.782Z,-2.6
2023-03-12T05:20:06.009Z,-2.6
2023-03-12T05:21:06.273Z,-2.6
2023-03-12T05:22:06.297Z,-2.6
2023-03-12T05:23:05.595Z,-2.6
2023-03-12T05:24:06.102Z,-2.6
2023-03-12T05:25:06.132Z,-2.6
2023-03-12T05:26:06.243Z,-2.6
2023-03-12T05:27:06.465Z,-2.6
2023-03-12T05:28:06.521Z,-2.6
2023-03-12T05:29:05.908Z,-2.6
2023-03-12T05:30:06.127Z,-2.6
2023-03-12T05:31:06.608Z,-2.6
2023-03-12T05:32:05.803Z,-2.6
2023-03-12T05:33:06.036Z,-3
2023-03-12T05:34:06.180Z,-2.6
2023-03-12T05:35:06.325Z,-2.6
2023-03-12T05:36:06.787Z,-2.5
2023-03-12T05:37:05.907Z,-2.5
2023-03-12T05:38:06.275Z,-2.5
2023-03-12T05:39:06.364Z,-2.5
2023-03-12T05:40:06.745Z,-3
2023-03-12T05:41:06.096Z,-2.5
2023-03-12T05:42:06.400Z,-2.5
2023-03-12T05:43:06.499Z,-2.5
2023-03-12T05:44:05.596Z,-3
2023-03-12T05:45:06.260Z,-3
2023-03-12T05:46:06.622Z,-2.5
2023-03-12T05:47:06.841Z,-2.5
2023-03-12T05:48:06.127Z,-2.5
2023-03-12T05:49:06.345Z,-2.5
2023-03-12T05:50:06.852Z,-2.5
2023-03-12T05:51:06.677Z,-2.5
2023-03-12T05:52:05.746Z,-2.5
2023-03-12T05:53:05.884Z,-2.5
2023-03-12T05:54:06.432Z,-2.4
2023-03-12T05:55:06.777Z,-2.4
2023-03-12T05:56:05.759Z,-2.4
2023-03-12T05:57:06.105Z,-3
2023-03-12T05:58:06.222Z,-2.4
2023-03-12T05:59:06.497Z,-2.4
2023-03-12T06:00:06.718Z,-2.4
2023-03-12T06:01:06.136Z,-2.4
2023-03-12T06:02:06.358Z,-2.4
2023-03-12T06:03:06.298Z,-2.4
2023-03-12T06:04:06.798Z,-2.4
2023-03-12T06:05:06.030Z,-2.4
2023-03-12T06:06:06.019Z,-2.4
2023-03-12T06:07:06.030Z,-2.4
2023-03-12T06:08:06.321Z,-2.4
2023-03-12T06:09:06.648Z,-2.4
2023-03-12T06:10:05.948Z,-2.3
2023-03-12T06:11:06.566Z,-2.3
2023-03-12T06:12:05.945Z,-2.3
2023-03-12T06:13:06.030Z,-2.3
2023-03-12T06:14:06.090Z,-2.2
2023-03-12T06:15:06.227Z,-2.2
2023-03-12T06:16:06.269Z,-2.1
2023-03-12T06:17:06.425Z,-2.2
2023-03-12T06:18:05.672Z,-2.1
2023-03-12T06:19:06.297Z,-3
2023-03-12T06:20:06.381Z,-2.1
2023-03-12T06:21:06.749Z,-2.1
2023-03-12T06:22:05.831Z,-2
2023-03-12T06:23:06.138Z,-2
2023-03-12T06:24:06.603Z,-2
2023-03-12T06:25:05.856Z,-2
2023-03-12T06:26:06.134Z,-2
2023-03-12T06:27:06.511Z,-1.9
2023-03-12T06:28:06.830Z,-2
2023-03-12T06:29:06.106Z,-1.9
2023-03-12T06:30:06.362Z,-1.9
2023-03-12T06:31:06.828Z,-3
2023-03-12T06:32:06.831Z,-3
2023-03-12T06:33:05.781Z,-3
2023-03-12T06:34:06.246Z,-1.7
2023-03-12T06:35:06.803Z,-1.7
2023-03-12T06:36:06.121Z,-1.7
2023-03-12T06:37:06.324Z,-1.6
2023-03-12T06:38:06.416Z,-2
2023-03-12T06:39:05.841Z,-1.6
2023-03-12T06:40:06.213Z,-1.6
2023-03-12T06:41:06.462Z,-1.6
2023-03-12T06:42:06.815Z,-1.5
2023-03-12T06:43:06.096Z,-1.5
2023-03-12T06:44:06.396Z,-2
2023-03-12T06:45:06.572Z,-1.5
2023-03-12T06:46:06.750Z,-2
2023-03-12T06:47:05.853Z,-1.4
2023-03-12T06:48:05.753Z,-1.4
2023-03-12T06:49:06.146Z,-1.4
2023-03-12T06:50:06.475Z,-1.4
2023-03-12T06:51:05.965Z,-1.4
2023-03-12T06:52:06.232Z,-1.4
2023-03-12T06:53:06.407Z,-2
2023-03-12T06:54:06.798Z,-1.3
2023-03-12T06:55:06.000Z,-2
2023-03-12T06:56:06.228Z,-1.2
2023-03-12T06:57:06.419Z,-1.2
2023-03-12T06:58:06.873Z,-1.2
2023-03-12T06:59:06.050Z,-1.1
2023-03-12T07:00:06.333Z,-1
2023-03-12T07:01:05.774Z,-2
2023-03-12T07:02:06.283Z,-0.9
2023-03-12T07:03:05.993Z,-0.9
2023-03-12T07:04:06.605Z,-0.9
2023-03-12T07:05:06.252Z,-0.8
2023-03-12T07:06:06.347Z,-0.8
2023-03-12T07:07:06.516Z,-4
2023-03-12T07:08:06.953Z,-0.8
2023-03-12T07:09:06.147Z,-0.8
2023-03-12T07:10:06.235Z,-0.8
2023-03-12T07:11:06.643Z,-0.7
2023-03-12T07:12:06.311Z,-0.7
2023-03-12T07:13:06.540Z,-0.6
2023-03-12T07:14:06.326Z,-0.6
2023-03-12T07:15:06.552Z,-0.5
2023-03-12T07:16:06.823Z,-0.4
2023-03-12T07:17:06.276Z,-0.4
2023-03-12T07:18:06.740Z,-0.4
2023-03-12T07:19:06.766Z,-0.4
2023-03-12T07:20:06.116Z,-0.4
2023-03-12T07:21:06.302Z,-0.2
2023-03-12T07:22:06.704Z,-0.3
2023-03-12T07:23:06.039Z,-0.2
2023-03-12T07:24:06.189Z,-0.3
2023-03-12T07:25:06.689Z,-0.3
2023-03-12T07:26:06.282Z,-0.3
2023-03-12T07:27:06.243Z,-0.3
2023-03-12T07:28:06.285Z,-0.4
2023-03-12T07:29:06.643Z,-0.3
2023-03-12T07:30:06.005Z,-1
2023-03-12T07:31:06.284Z,-0.4
2023-03-12T07:32:06.071Z,-0.3
2023-03-12T07:33:07.035Z,-0.3
2023-03-12T07:34:06.963Z,-0.3
2023-03-12T07:35:05.952Z,-0.4
2023-03-12T07:36:06.813Z,-0.4
2023-03-12T07:37:06.750Z,-0.4
2023-03-12T07:38:06.203Z,-0.4
2023-03-12T07:39:06.178Z,-0.4
2023-03-12T07:40:06.593Z,-0.4
2023-03-12T07:41:05.960Z,-0.4
2023-03-12T07:42:06.240Z,-1
2023-03-12T07:43:06.154Z,-0.4
2023-03-12T07:44:06.651Z,-0.4
2023-03-12T07:45:06.924Z,-0.3
2023-03-12T07:46:05.989Z,-0.3
2023-03-12T07:47:26.761Z,-0.3
2023-03-12T07:48:06.922Z,-0.3
2023-03-12T07:49:05.820Z,-0.3
2023-03-12T07:50:06.289Z,-0.2
2023-03-12T07:51:06.446Z,-0.3
2023-03-12T07:52:05.881Z,-0.2
2023-03-12T07:53:06.287Z,-1
2023-03-12T07:54:06.691Z,-0.2
2023-03-12T07:55:06.043Z,-0.2
2023-03-12T07:56:06.704Z,-0.2
2023-03-12T07:57:06.931Z,-0.2
2023-03-12T07:58:06.845Z,-0.2
2023-03-12T07:59:06.208Z,-1
2023-03-12T08:00:06.223Z,-0.2
2023-03-12T08:01:06.014Z,-0.2
2023-03-12T08:02:06.859Z,-0.2
2023-03-12T08:03:06.918Z,-0.2
2023-03-12T08:04:06.620Z,-0.2
2023-03-12T08:05:06.037Z,-0.1
2023-03-12T08:06:06.864Z,-0.1
2023-03-12T08:07:08.765Z,-0.1
2023-03-12T08:08:06.593Z,-0.1
2023-03-12T08:09:06.828Z,-0.1
2023-03-12T08:10:06.318Z,-0.1
2023-03-12T08:11:06.362Z,-0.1
2023-03-12T08:12:06.933Z,-0.1
2023-03-12T08:13:06.023Z,-0.1
2023-03-12T08:14:06.064Z,-0.1
2023-03-12T08:15:06.247Z,-0.1
2023-03-12T08:16:08.972Z,-0.1
2023-03-12T08:17:06.810Z,-1
2023-03-12T08:18:06.149Z,-0.1
2023-03-12T08:19:06.410Z,0
2023-03-12T08:20:06.398Z,-0.1
2023-03-12T08:21:06.631Z,-0.1
2023-03-12T08:22:05.850Z,-0.1
2023-03-12T08:23:05.952Z,-0.1
2023-03-12T08:24:06.005Z,-0.1
2023-03-12T08:25:06.443Z,-0.1
2023-03-12T08:26:06.740Z,0
2023-03-12T08:27:05.947Z,0
2023-03-12T08:28:06.198Z,0
2023-03-12T08:29:06.448Z,0
2023-03-12T08:30:06.840Z,0
2023-03-12T08:31:06.630Z,0
2023-03-12T08:32:09.804Z,0.1
2023-03-12T08:33:06.165Z,0.1
2023-03-12T08:34:06.365Z,0.1
2023-03-12T08:35:05.715Z,0.1
2023-03-12T08:36:06.458Z,0
2023-03-12T08:37:06.787Z,0.2
2023-03-12T08:38:06.153Z,0.1
2023-03-12T08:39:06.336Z,0.2
2023-03-12T08:40:06.559Z,0.3
2023-03-12T08:41:06.501Z,0.4
2023-03-12T08:42:05.827Z,0
2023-03-12T08:43:06.052Z,0.5
2023-03-12T08:44:06.439Z,0.5
2023-03-12T08:45:06.657Z,0.5
2023-03-12T08:46:06.527Z,0.5
2023-03-12T08:47:06.085Z,0.5
2023-03-12T08:48:06.343Z,0
2023-03-12T08:49:06.365Z,0.6
2023-03-12T08:50:05.979Z,0.6
2023-03-12T08:51:06.383Z,0.6
2023-03-12T08:52:06.808Z,0
2023-03-12T08:53:05.970Z,0.6
2023-03-12T08:54:06.118Z,0.7
2023-03-12T08:55:06.490Z,0.7
2023-03-12T08:56:05.979Z,0
2023-03-12T08:57:06.392Z,0.8
2023-03-12T08:58:06.954Z,0.8
2023-03-12T08:59:06.609Z,0.9
2023-03-12T09:00:05.831Z,1
2023-03-12T09:01:06.077Z,1.1
2023-03-12T09:02:06.618Z,0
2023-03-12T09:03:06.773Z,1.2
2023-03-12T09:04:05.954Z,1.2
2023-03-12T09:05:06.253Z,0
2023-03-12T09:06:06.370Z,1.2
2023-03-12T09:07:05.858Z,1.3
2023-03-12T09:08:06.721Z,1.3
2023-03-12T09:09:05.764Z,1.4
2023-03-12T09:10:06.370Z,1.4
2023-03-12T09:11:06.518Z,1.4
2023-03-12T09:12:06.179Z,1.4
2023-03-12T09:13:06.492Z,1.4
2023-03-12T09:15:05.963Z,1.4
2023-03-12T09:15:08.798Z,0
2023-03-12T09:16:06.428Z,1.5
2023-03-12T09:17:06.649Z,1.4
2023-03-12T09:18:05.986Z,1.4
2023-03-12T09:19:06.238Z,1.5
2023-03-12T09:20:05.895Z,0
2023-03-12T09:21:06.803Z,1.5
2023-03-12T09:22:06.010Z,1.5
2023-03-12T09:23:07.756Z,1.5
2023-03-12T09:24:06.138Z,1.6
2023-03-12T09:25:06.442Z,1.5
2023-03-12T09:26:06.617Z,1.5
2023-03-12T09:27:06.045Z,1.5
2023-03-12T09:28:06.552Z,1.6
2023-03-12T09:29:05.829Z,1.6
2023-03-12T09:30:05.892Z,0
2023-03-12T09:31:06.604Z,1.6
2023-03-12T09:32:09.807Z,1.6
2023-03-12T09:33:05.825Z,1.6
2023-03-12T09:34:06.133Z,1.6
2023-03-12T09:35:06.310Z,1.6
2023-03-12T09:36:06.759Z,1.6
2023-03-12T09:37:05.994Z,1.6
2023-03-12T09:38:06.174Z,1.6
2023-03-12T09:39:06.596Z,1
2023-03-12T09:40:06.723Z,1.7
2023-03-12T09:41:06.058Z,1.8
2023-03-12T09:42:06.425Z,1.8
2023-03-12T09:43:06.778Z,1.9
2023-03-12T09:44:06.066Z,1.9
2023-03-12T09:45:06.497Z,2
2023-03-12T09:46:07.093Z,2
2023-03-12T09:47:06.183Z,2.1
2023-03-12T09:48:06.418Z,2.2
2023-03-12T09:49:06.498Z,2.3
2023-03-12T09:50:06.870Z,2.3
2023-03-12T09:51:05.973Z,2.3
2023-03-12T09:52:06.260Z,2.4
2023-03-12T09:53:06.347Z,2.4
2023-03-12T09:54:06.701Z,2.4
2023-03-12T09:55:05.974Z,2.4
2023-03-12T09:56:06.446Z,2.4
2023-03-12T09:57:06.669Z,2.5
2023-03-12T09:58:05.894Z,2.6
2023-03-12T09:59:06.198Z,2.6
2023-03-12T10:00:06.238Z,2.6
2023-03-12T10:01:06.286Z,2.7
2023-03-12T10:02:06.512Z,2.8
2023-03-12T10:03:06.774Z,2.8
2023-03-12T10:04:05.867Z,2.8
2023-03-12T10:05:06.353Z,2
2023-03-12T10:07:06.394Z,3
2023-03-12T10:08:33.437Z,3
2023-03-12T10:09:06.875Z,3
2023-03-12T10:10:06.375Z,3
2023-03-12T10:11:06.018Z,3.1
2023-03-12T10:12:06.294Z,3.1
2023-03-12T10:13:06.443Z,3.2
2023-03-12T10:14:06.617Z,3.2
2023-03-12T10:15:06.005Z,2
2023-03-12T10:16:06.678Z,3.2
2023-03-12T10:17:06.906Z,3.2
2023-03-12T10:18:06.435Z,3.2
2023-03-12T10:19:06.325Z,3.3
2023-03-12T10:20:06.534Z,3.2
2023-03-12T10:21:06.816Z,3.2
2023-03-12T10:22:05.680Z,3.3
2023-03-12T10:23:06.092Z,3.3
2023-03-12T10:24:06.523Z,3.4
2023-03-12T10:25:06.501Z,3.4
2023-03-12T10:26:06.352Z,3.5
2023-03-12T10:27:06.627Z,3.5
2023-03-12T10:28:05.813Z,3.5
2023-03-12T10:29:06.084Z,3
2023-03-12T10:30:06.308Z,3.5
2023-03-12T10:31:06.374Z,3.6
2023-03-12T10:32:06.503Z,3.6
2023-03-12T10:33:06.586Z,3.6
2023-03-12T10:34:06.681Z,3.7
2023-03-12T10:35:06.083Z,3.8
2023-03-12T10:36:06.217Z,3.8
2023-03-12T10:37:06.544Z,3.8
2023-03-12T10:38:06.625Z,3.8
2023-03-12T10:39:05.934Z,4
2023-03-12T10:40:06.210Z,4
2023-03-12T10:41:06.716Z,3
2023-03-12T10:42:06.139Z,4.1
2023-03-12T10:43:06.436Z,4.1
2023-03-12T10:44:06.703Z,4.2
2023-03-12T10:45:06.737Z,4.2
2023-03-12T10:46:06.386Z,4.3
2023-03-12T10:47:06.204Z,4.2
2023-03-12T10:48:06.730Z,4.3
2023-03-12T10:49:05.914Z,3
2023-03-12T10:50:05.888Z,3
2023-03-12T10:51:06.505Z,3
2023-03-12T10:52:06.472Z,4.4
2023-03-12T10:53:06.546Z,4.4
2023-03-12T10:54:06.877Z,4.4
2023-03-12T10:55:06.042Z,4.4
2023-03-12T10:56:06.684Z,4.4
2023-03-12T10:57:05.972Z,4.4
2023-03-12T10:58:06.065Z,4.4
2023-03-12T10:59:06.522Z,4.5
2023-03-12T11:00:05.900Z,4.5
2023-03-12T11:01:05.979Z,4.5
2023-03-12T11:02:06.402Z,4.6
2023-03-12T11:03:06.274Z,4.7
2023-03-12T11:04:06.656Z,4.7
2023-03-12T11:05:06.099Z,4.7
2023-03-12T11:06:06.324Z,4.8
2023-03-12T11:07:06.311Z,4.8
2023-03-12T11:08:06.537Z,4.8
2023-03-12T11:09:20.299Z,4.8
2023-03-12T11:10:06.000Z,4.8
2023-03-12T11:11:06.338Z,4.7
2023-03-12T11:12:06.617Z,4.8
2023-03-12T11:13:05.969Z,4.8
2023-03-12T11:14:06.182Z,3
2023-03-12T11:15:06.489Z,4.7
2023-03-12T11:16:06.283Z,4.7
2023-03-12T11:17:06.463Z,4.6
2023-03-12T11:18:05.964Z,4.6
2023-03-12T11:19:06.146Z,4.6
2023-03-12T11:20:06.264Z,4.6
2023-03-12T11:21:06.708Z,4.6
2023-03-12T11:22:05.844Z,3
2023-03-12T11:23:06.195Z,4.6
2023-03-12T11:24:06.435Z,4.6
2023-03-12T11:25:06.821Z,4
2023-03-12T11:26:06.175Z,4.6
2023-03-12T11:27:06.523Z,4.7
2023-03-12T11:28:06.058Z,4.8
2023-03-12T11:29:06.337Z,4.8
2023-03-12T11:30:07.138Z,4.8
2023-03-12T11:31:05.913Z,5
2023-03-12T11:32:06.454Z,5
2023-03-12T11:33:06.367Z,5.1
2023-03-12T11:34:06.562Z,5.2
2023-03-12T11:35:05.954Z,5.2
2023-03-12T11:36:06.010Z,5.2
2023-03-12T11:37:06.492Z,4
2023-03-12T11:38:05.916Z,5.3
2023-03-12T11:39:05.781Z,5.4
2023-03-12T11:40:06.101Z,5.4
2023-03-12T11:41:06.569Z,5.4
2023-03-12T11:42:06.143Z,5.4
2023-03-12T11:43:05.879Z,5.4
2023-03-12T11:44:05.918Z,5.4
2023-03-12T11:45:06.241Z,5.5
2023-03-12T11:46:05.784Z,4
2023-03-12T11:47:06.357Z,5.5
2023-03-12T11:48:06.394Z,5.5
2023-03-12T11:49:06.877Z,4
2023-03-12T11:50:06.754Z,5.6
2023-03-12T11:51:05.947Z,5.5
2023-03-12T11:52:06.109Z,5.5
2023-03-12T11:53:06.529Z,5.6
2023-03-12T11:54:05.887Z,5.6
2023-03-12T11:55:06.191Z,5.6
2023-03-12T11:56:06.206Z,5.6
2023-03-12T11:57:06.379Z,5.6
2023-03-12T11:58:05.848Z,5.6
2023-03-12T11:59:05.988Z,5.6
2023-03-12T12:00:06.564Z,5.6
2023-03-12T12:01:06.769Z,5.6
2023-03-12T12:02:06.349Z,5.6
2023-03-12T12:03:06.591Z,5
2023-03-12T12:04:06.542Z,5.5
2023-03-12T12:05:05.854Z,5.5
2023-03-12T12:06:06.257Z,5.5
2023-03-12T12:07:06.274Z,5.5
2023-03-12T12:08:06.746Z,5.5
2023-03-12T12:09:05.913Z,5.5
2023-03-12T12:10:05.938Z,5.5
2023-03-12T12:11:06.011Z,5.5
2023-03-12T12:12:09.523Z,5.5
2023-03-12T12:13:06.561Z,5.5
2023-03-12T12:14:06.758Z,5.5
2023-03-12T12:15:05.946Z,5.5
2023-03-12T12:16:06.501Z,5.5
2023-03-12T12:17:06.504Z,5.5
2023-03-12T12:18:06.848Z,5.4
2023-03-12T12:19:08.665Z,5.5
2023-03-12T12:20:06.421Z,5.5
2023-03-12T12:21:06.806Z,5.5
2023-03-12T12:22:06.046Z,5.5
2023-03-12T12:23:06.532Z,5.5
2023-03-12T12:24:06.625Z,5.5
2023-03-12T12:25:06.921Z,5.5
2023-03-12T12:26:05.926Z,5.5
2023-03-12T12:27:06.482Z,5.5
2023-03-12T12:28:06.320Z,4
2023-03-12T12:29:06.697Z,5.5
2023-03-12T12:30:06.222Z,5.5
2023-03-12T12:31:06.614Z,5.5
2023-03-12T12:32:06.739Z,5.6
2023-03-12T12:33:06.635Z,5.5
2023-03-12T12:34:05.534Z,5.5
2023-03-12T12:35:06.172Z,5.5
2023-03-12T12:36:06.709Z,4
2023-03-12T12:37:06.805Z,5.5
2023-03-12T12:38:06.026Z,5.5
2023-03-12T12:39:06.203Z,5.5
2023-03-12T12:40:06.318Z,5.5
2023-03-12T12:41:06.915Z,5.5
2023-03-12T12:42:05.983Z,5.5
2023-03-12T12:43:06.230Z,5.5
2023-03-12T12:44:06.613Z,5.5
2023-03-12T12:45:06.147Z,5.5
2023-03-12T12:46:06.540Z,5.5
2023-03-12T12:47:06.584Z,5.4
2023-03-12T12:48:07.015Z,5.4
2023-03-12T12:49:05.949Z,5.4
2023-03-12T12:50:06.480Z,5.4
2023-03-12T12:51:08.973Z,5.4
2023-03-12T12:52:05.812Z,5.4
2023-03-12T12:53:06.176Z,5.4
2023-03-12T12:54:06.249Z,4
2023-03-12T12:55:06.718Z,5.4
2023-03-12T12:56:05.834Z,5.4
2023-03-12T12:57:06.279Z,5.4
2023-03-12T12:58:06.550Z,5.4
2023-03-12T12:59:06.575Z,5.4
2023-03-12T13:00:06.035Z,5.4
2023-03-12T13:01:06.554Z,5.3
2023-03-12T13:02:06.530Z,5.4
2023-03-12T13:03:06.611Z,5.4
2023-03-12T13:04:06.871Z,5.4
2023-03-12T13:05:05.912Z,5.5
2023-03-12T13:06:06.363Z,5.5
2023-03-12T13:07:06.690Z,5.6
2023-03-12T13:08:06.588Z,5.6
2023-03-12T13:09:05.868Z,5.6
2023-03-12T13:10:06.001Z,5.6
2023-03-12T13:11:23.058Z,5.6
2023-03-12T13:12:06.792Z,5.6
2023-03-12T13:13:05.747Z,5.6
2023-03-12T13:14:06.084Z,5
2023-03-12T13:15:06.475Z,5.6
2023-03-12T13:16:06.891Z,5
2023-03-12T13:17:06.805Z,5.6
2023-03-12T13:18:05.692Z,5.6
2023-03-12T13:19:06.000Z,5.6
2023-03-12T13:20:06.654Z,5
2023-03-12T13:21:06.859Z,5.6
2023-03-12T13:22:06.043Z,5.5
2023-03-12T13:23:06.571Z,5.6
2023-03-12T13:24:06.509Z,5.6
2023-03-12T13:25:06.717Z,5.6
2023-03-12T13:26:06.037Z,5.6
2023-03-12T13:27:06.476Z,5.6
2023-03-12T13:28:06.799Z,5.6
2023-03-12T13:29:16.763Z,5.6
2023-03-12T13:30:06.365Z,5.6
2023-03-12T13:31:06.810Z,5.6
2023-03-12T13:32:06.713Z,5.6
2023-03-12T13:33:05.717Z,5.6
2023-03-12T13:34:06.285Z,5
2023-03-12T13:35:06.855Z,5
2023-03-12T13:36:06.872Z,5.6
2023-03-12T13:37:06.434Z,5.6
2023-03-12T13:38:06.646Z,5.6
2023-03-12T13:39:06.036Z,5.6